Flight Track Log - Related Links

Times and Time Zones

All times are in EDT time to prevent confusion due to time zone crossing. See the N280TA flight status page for this flight to view local times or setup timezone preferences in your user account.

Time Position Orientation Groundspeed Altitude Reporting Facility
EDT Latitude Longitude Course Direction KTS MPH feet Rate Location/Type
Wed 07:49:21 PM 32.7167 -83.6333 323° Northwest 185 213 2,900  Level Atlanta TRACON
Wed 07:54:21 PM 33.0167 -83.9000 328° Northwest 274 315 6,000 517 Climbing Atlanta TRACON
Wed 07:55:21 PM 33.0833 -83.9500 320° Northwest 266 306 6,000  Level Atlanta TRACON
Wed 07:56:21 PM 33.1333 -84.0000 312° West 267 307 6,000  Level Atlanta TRACON
Wed 07:57:21 PM 33.1833 -84.0667 301° West 242 278 6,000  Level Atlanta TRACON
Wed 07:58:21 PM 33.2167 -84.1333 320° Northwest 227 261 6,000 -450 Level Atlanta TRACON
Wed 07:59:21 PM 33.2667 -84.1833 301° West 241 277 5,100 -500 Descending Atlanta TRACON
Wed 08:00:21 PM 33.3000 -84.2500 320° Northwest 230 265 5,000 -50 Descending Atlanta TRACON
Wed 08:01:21 PM 33.3500 -84.3000 301° West 218 251 5,000  Level Atlanta TRACON
Wed 08:02:21 PM 33.3833 -84.3667 309° West 217 250 5,000  Level Atlanta TRACON
Wed 08:03:22 PM 33.4167 -84.4167 312° West 222 255 5,000  Level Atlanta TRACON
Wed 08:04:28 PM 33.4667 -84.4833 12° North 238 274 5,000  Level Atlanta TRACON
Wed 08:05:28 PM 33.5333 -84.4667 360° North 244 281 5,000  Level Atlanta TRACON
Wed 08:06:28 PM 33.6000 -84.4667 360° North 264 304 5,000 50 Level Atlanta TRACON
Wed 08:07:28 PM 33.6833 -84.4667 360° North 260 299 5,100  Climbing Atlanta TRACON
Wed 08:08:28 PM 33.7333 -84.4667 360° North 192 221 5,000 -50 Descending Atlanta TRACON
Wed 08:09:28 PM 33.7833 -84.4667 309° West 194 223 5,000 -450 Level Atlanta TRACON
Wed 08:10:28 PM 33.8167 -84.5167 248° West 195 224 4,100 -905 Descending Atlanta TRACON
Wed 08:11:34 PM 33.8000 -84.5667 119° Southeast 148 170 3,100 -909 Descending Atlanta TRACON
Wed 08:20:32 PM 33.2950 -83.4858 119° Southeast  Level Estimated

Login

Don't have an account? Register now (free) for customized features, flight alerts, and more!